createdAt,value
2017-04-07T00:00:20.237Z,53.60
2017-04-07T00:01:19.324Z,53.60
2017-04-07T00:02:18.411Z,53.60
2017-04-07T00:03:17.516Z,53.40
2017-04-07T00:04:16.605Z,53.40
2017-04-07T00:05:15.700Z,53.60
2017-04-07T00:06:14.787Z,53.70
2017-04-07T00:07:13.883Z,53.80
2017-04-07T00:08:12.987Z,53.70
2017-04-07T00:09:12.832Z,53.60
2017-04-07T00:10:11.972Z,53.60
2017-04-07T00:11:11.812Z,53.60
2017-04-07T00:12:11.024Z,53.70
2017-04-07T00:13:10.139Z,53.70
2017-04-07T00:14:09.963Z,53.70
2017-04-07T00:15:09.052Z,53.60
2017-04-07T00:16:08.143Z,54.00
2017-04-07T00:17:07.245Z,53.60
2017-04-07T00:18:06.351Z,53.50
2017-04-07T00:19:05.515Z,53.40
2017-04-07T00:20:04.612Z,53.40
2017-04-07T00:21:03.711Z,53.60
2017-04-07T00:22:02.804Z,53.80
2017-04-07T00:23:01.936Z,53.70
2017-04-07T00:24:01.066Z,54.00
2017-04-07T00:25:00.164Z,53.70
2017-04-07T00:25:59.252Z,53.90
2017-04-07T00:26:58.339Z,54.40
2017-04-07T00:27:57.445Z,54.70
2017-04-07T00:28:57.283Z,55.00
2017-04-07T00:29:56.371Z,55.20
2017-04-07T00:30:55.459Z,55.30
2017-04-07T00:31:54.548Z,55.10
2017-04-07T00:32:53.668Z,55.20
2017-04-07T00:33:52.839Z,55.00
2017-04-07T00:34:51.928Z,54.60
2017-04-07T00:35:51.012Z,54.50
2017-04-07T00:36:50.108Z,54.90
2017-04-07T00:37:49.281Z,55.10
2017-04-07T00:38:48.400Z,55.50
2017-04-07T00:39:48.240Z,55.70
2017-04-07T00:40:47.368Z,55.90
2017-04-07T00:41:46.524Z,56.10
2017-04-07T00:42:45.639Z,56.20
2017-04-07T00:43:44.784Z,55.90
2017-04-07T00:44:43.879Z,55.50
2017-04-07T00:45:43.088Z,55.00
2017-04-07T00:46:42.204Z,54.90
2017-04-07T00:47:42.040Z,54.80
2017-04-07T00:48:41.135Z,54.70
2017-04-07T00:49:40.241Z,54.90
2017-04-07T00:50:39.331Z,55.00
2017-04-07T00:51:38.436Z,54.90
2017-04-07T00:52:37.559Z,54.60
2017-04-07T00:53:36.652Z,54.60
2017-04-07T00:54:35.774Z,54.50
2017-04-07T00:55:34.867Z,54.50
2017-04-07T00:56:34.047Z,54.70
2017-04-07T00:57:33.132Z,55.00
2017-04-07T00:58:32.248Z,55.00
2017-04-07T00:59:32.120Z,54.90
2017-04-07T01:00:31.341Z,54.70
2017-04-07T01:01:31.176Z,54.60
2017-04-07T01:02:30.276Z,54.70
2017-04-07T01:03:29.360Z,54.90
2017-04-07T01:04:28.444Z,55.20
2017-04-07T01:05:27.584Z,55.10
2017-04-07T01:06:27.428Z,55.50
2017-04-07T01:07:26.516Z,55.60
2017-04-07T01:08:25.668Z,55.70
2017-04-07T01:09:25.503Z,55.90
2017-04-07T01:10:24.628Z,56.00
2017-04-07T01:11:23.732Z,55.60
2017-04-07T01:12:23.583Z,55.50
2017-04-07T01:13:22.689Z,55.40
2017-04-07T01:14:21.807Z,55.30
2017-04-07T01:15:21.664Z,55.10
2017-04-07T01:16:21.174Z,55.00
2017-04-07T01:17:20.308Z,54.80
2017-04-07T01:18:20.142Z,54.60
2017-04-07T01:19:19.248Z,54.70
2017-04-07T01:20:18.351Z,54.60
2017-04-07T01:21:17.524Z,54.60
2017-04-07T01:22:16.623Z,54.60
2017-04-07T01:23:15.732Z,54.70
2017-04-07T01:24:15.564Z,54.90
2017-04-07T01:25:14.707Z,55.00
2017-04-07T01:26:14.556Z,55.10
2017-04-07T01:27:13.709Z,55.00
2017-04-07T01:28:13.543Z,54.90
2017-04-07T01:29:12.647Z,55.00
2017-04-07T01:30:11.744Z,55.40
2017-04-07T01:31:10.887Z,55.40
2017-04-07T01:32:09.992Z,55.30
2017-04-07T01:33:09.204Z,55.40
2017-04-07T01:34:08.295Z,55.70
2017-04-07T01:35:07.403Z,55.70
2017-04-07T01:36:07.247Z,55.60
2017-04-07T01:37:06.348Z,55.40
2017-04-07T01:38:05.447Z,55.30
2017-04-07T01:39:04.888Z,55.50
2017-04-07T01:40:03.982Z,56.50
2017-04-07T01:41:03.106Z,55.70
2017-04-07T01:42:02.204Z,55.70
2017-04-07T01:43:01.356Z,55.70
2017-04-07T01:44:00.468Z,55.80
2017-04-07T01:44:59.596Z,56.30
2017-04-07T01:45:59.471Z,56.70
2017-04-07T01:46:59.015Z,56.80
2017-04-07T01:47:58.116Z,56.60
2017-04-07T01:48:57.255Z,56.30
2017-04-07T01:49:57.100Z,56.60
2017-04-07T01:50:56.199Z,56.70
2017-04-07T01:51:55.315Z,56.60
2017-04-07T01:52:54.417Z,56.50
2017-04-07T01:53:54.264Z,56.60
2017-04-07T01:54:53.356Z,56.50
2017-04-07T01:55:52.445Z,56.50
2017-04-07T01:56:51.584Z,56.40
2017-04-07T01:57:51.419Z,56.70
2017-04-07T01:58:50.515Z,56.80
2017-04-07T01:59:49.600Z,57.00
2017-04-07T02:00:48.684Z,57.10
2017-04-07T02:01:47.783Z,57.10
2017-04-07T02:02:46.924Z,56.90
2017-04-07T02:03:46.107Z,57.00
2017-04-07T02:04:45.951Z,57.00
2017-04-07T02:05:45.087Z,56.90
2017-04-07T02:06:44.940Z,56.90
2017-04-07T02:07:44.064Z,56.90
2017-04-07T02:09:43.320Z,57.70
2017-04-07T02:10:42.523Z,57.10
2017-04-07T02:11:41.620Z,57.00
2017-04-07T02:12:40.741Z,57.30
2017-04-07T02:13:39.911Z,57.60
2017-04-07T02:14:39.743Z,57.70
2017-04-07T02:15:38.879Z,58.00
2017-04-07T02:16:38.000Z,58.00
2017-04-07T02:17:37.872Z,57.90
2017-04-07T02:18:37.023Z,57.60
2017-04-07T02:19:36.130Z,57.70
2017-04-07T02:20:35.247Z,58.10
2017-04-07T02:21:35.099Z,57.80
2017-04-07T02:22:34.235Z,57.80
2017-04-07T02:23:33.347Z,58.20
2017-04-07T02:24:32.476Z,58.40
2017-04-07T02:25:31.584Z,58.40
2017-04-07T02:26:30.783Z,58.40
2017-04-07T02:28:29.547Z,58.10
2017-04-07T02:29:28.668Z,58.20
2017-04-07T02:30:28.518Z,58.40
2017-04-07T02:31:27.632Z,58.30
2017-04-07T02:32:27.512Z,58.10
2017-04-07T02:33:26.639Z,58.30
2017-04-07T02:34:26.487Z,58.30
2017-04-07T02:35:26.236Z,58.30
2017-04-07T02:36:26.105Z,58.40
2017-04-07T02:37:25.212Z,58.30
2017-04-07T02:38:24.651Z,58.30
2017-04-07T02:39:23.764Z,58.20
2017-04-07T02:40:22.868Z,57.90
2017-04-07T02:41:21.984Z,57.80
2017-04-07T02:42:21.844Z,57.80
2017-04-07T02:43:20.947Z,57.80
2017-04-07T02:44:20.071Z,57.90
2017-04-07T02:45:19.203Z,58.80
2017-04-07T02:46:19.144Z,58.30
2017-04-07T02:47:19.096Z,58.70
2017-04-07T02:48:18.203Z,58.70
2017-04-07T02:49:17.339Z,58.90
2017-04-07T02:50:16.448Z,58.60
2017-04-07T02:51:15.592Z,58.50
2017-04-07T02:52:15.443Z,58.50
2017-04-07T02:53:14.592Z,58.80
2017-04-07T02:54:14.461Z,58.90
2017-04-07T02:55:13.575Z,59.30
2017-04-07T02:56:13.420Z,59.50
2017-04-07T02:57:12.625Z,59.40
2017-04-07T02:58:11.744Z,59.30
2017-04-07T02:59:11.716Z,59.20
2017-04-07T03:00:10.838Z,59.10
2017-04-07T03:01:10.735Z,59.00
2017-04-07T03:02:10.592Z,59.10
2017-04-07T03:03:09.699Z,58.90
2017-04-07T03:04:08.835Z,58.90
2017-04-07T03:05:08.044Z,59.00
2017-04-07T03:06:07.156Z,58.90
2017-04-07T03:07:06.263Z,59.10
2017-04-07T03:08:05.381Z,59.30
2017-04-07T03:09:04.959Z,59.40
2017-04-07T03:10:04.829Z,59.40
2017-04-07T03:11:03.935Z,59.40
2017-04-07T03:13:02.468Z,59.60
2017-04-07T03:14:01.586Z,59.80
2017-04-07T03:15:00.716Z,59.80
2017-04-07T03:15:59.827Z,60.20
2017-04-07T03:16:58.935Z,60.40
2017-04-07T03:17:58.043Z,60.40
2017-04-07T03:19:56.652Z,60.20
2017-04-07T03:20:55.801Z,61.10
2017-04-07T03:21:54.972Z,60.20
2017-04-07T03:22:54.083Z,59.90
2017-04-07T03:24:53.411Z,59.50
2017-04-07T03:25:52.552Z,59.60
2017-04-07T03:26:51.660Z,59.50
2017-04-07T03:27:51.520Z,59.40
2017-04-07T03:28:50.643Z,59.40
2017-04-07T03:29:50.503Z,59.60
2017-04-07T03:30:49.632Z,59.70
2017-04-07T03:31:49.492Z,59.80
2017-04-07T03:32:48.607Z,59.90
2017-04-07T03:33:47.723Z,60.00
2017-04-07T03:34:47.576Z,60.20
2017-04-07T03:35:46.700Z,60.60
2017-04-07T03:36:46.555Z,60.60
2017-04-07T03:37:45.663Z,60.70
2017-04-07T03:38:44.771Z,60.80
2017-04-07T03:39:44.621Z,60.50
2017-04-07T03:40:43.761Z,60.60
2017-04-07T03:41:43.615Z,61.00
2017-04-07T03:42:42.726Z,61.20
2017-04-07T03:43:41.836Z,61.40
2017-04-07T03:44:41.701Z,61.60
2017-04-07T03:45:40.832Z,61.70
2017-04-07T03:46:40.812Z,61.90
2017-04-07T03:47:39.951Z,61.60
2017-04-07T03:48:39.083Z,61.30
2017-04-07T03:49:38.294Z,60.50
2017-04-07T03:50:38.148Z,60.20
2017-04-07T03:51:37.308Z,60.40
2017-04-07T03:52:36.415Z,60.70
2017-04-07T03:53:35.520Z,60.80
2017-04-07T03:54:34.636Z,60.80
2017-04-07T03:55:34.491Z,60.70
2017-04-07T03:56:33.623Z,60.70
2017-04-07T03:57:33.475Z,60.70
2017-04-07T03:58:32.592Z,60.70
2017-04-07T03:59:31.712Z,60.60
2017-04-07T04:00:31.574Z,60.70
2017-04-07T04:01:30.743Z,60.60
2017-04-07T04:02:29.859Z,60.90
2017-04-07T04:03:28.992Z,61.00
2017-04-07T04:04:28.222Z,61.20
2017-04-07T04:05:27.409Z,61.10
2017-04-07T04:06:26.552Z,61.10
2017-04-07T04:07:25.676Z,61.30
2017-04-07T04:08:24.783Z,61.50
2017-04-07T04:09:23.897Z,61.60
2017-04-07T04:10:23.754Z,62.00
2017-04-07T04:11:22.867Z,62.00
2017-04-07T04:13:21.418Z,62.30
2017-04-07T04:14:20.536Z,62.10
2017-04-07T04:15:20.392Z,61.80
2017-04-07T04:16:19.504Z,61.70
2017-04-07T04:17:18.625Z,61.70
2017-04-07T04:18:18.482Z,61.60
2017-04-07T04:19:17.583Z,61.60
2017-04-07T04:20:16.720Z,61.60
2017-04-07T04:21:15.872Z,61.40
2017-04-07T04:22:15.764Z,62.30
2017-04-07T04:23:14.907Z,61.60
2017-04-07T04:24:14.027Z,62.00
2017-04-07T04:25:13.144Z,62.10
2017-04-07T04:26:13.005Z,62.00
2017-04-07T04:27:12.194Z,62.10
2017-04-07T04:28:11.319Z,63.00
2017-04-07T04:29:11.287Z,62.10
2017-04-07T04:30:10.424Z,62.00
2017-04-07T04:31:09.532Z,62.20
2017-04-07T04:32:08.644Z,62.10
2017-04-07T04:33:07.779Z,62.30
2017-04-07T04:34:07.631Z,62.70
2017-04-07T04:35:06.743Z,62.60
2017-04-07T04:37:05.279Z,62.60
2017-04-07T04:38:04.412Z,62.40
2017-04-07T04:39:05.244Z,62.40
2017-04-07T04:40:05.092Z,62.50
2017-04-07T04:41:04.229Z,62.50
2017-04-07T04:42:04.098Z,62.50
2017-04-07T04:43:03.227Z,62.20
2017-04-07T04:44:03.089Z,62.30
2017-04-07T04:45:02.208Z,62.00
2017-04-07T04:46:02.056Z,62.90
2017-04-07T04:47:01.177Z,62.20
2017-04-07T04:48:00.293Z,62.50
2017-04-07T04:49:00.156Z,62.20
2017-04-07T04:49:59.267Z,62.00
2017-04-07T04:50:59.121Z,62.20
2017-04-07T04:51:58.239Z,62.40
2017-04-07T04:52:57.355Z,62.70
2017-04-07T04:53:57.196Z,62.70
2017-04-07T04:54:56.287Z,62.80
2017-04-07T04:55:55.407Z,62.80
2017-04-07T04:56:54.504Z,62.90
2017-04-07T04:57:54.383Z,62.80
2017-04-07T04:58:53.484Z,62.70
2017-04-07T04:59:52.584Z,62.40
2017-04-07T05:01:51.823Z,62.70
2017-04-07T05:02:50.916Z,62.90
2017-04-07T05:03:50.036Z,63.40
2017-04-07T05:04:49.128Z,63.50
2017-04-07T05:05:48.983Z,63.80
2017-04-07T05:06:48.135Z,63.60
2017-04-07T05:07:47.980Z,63.10
2017-04-07T05:08:47.115Z,63.00
2017-04-07T05:09:46.951Z,63.50
2017-04-07T05:10:46.051Z,63.40
2017-04-07T05:11:45.164Z,63.10
2017-04-07T05:12:44.260Z,62.70
2017-04-07T05:13:43.371Z,62.70
2017-04-07T05:14:42.491Z,62.80
2017-04-07T05:15:41.596Z,63.20
2017-04-07T05:16:40.716Z,63.20
2017-04-07T05:17:40.551Z,63.20
2017-04-07T05:18:39.720Z,63.20
2017-04-07T05:19:38.824Z,63.30
2017-04-07T05:20:38.042Z,63.30
2017-04-07T05:21:37.133Z,63.40
2017-04-07T05:22:36.223Z,62.90
2017-04-07T05:23:35.584Z,62.10
2017-04-07T05:24:34.668Z,61.60
2017-04-07T05:25:33.759Z,61.60
2017-04-07T05:26:32.859Z,61.70
2017-04-07T05:27:31.951Z,62.00
2017-04-07T05:28:32.039Z,62.20
2017-04-07T05:29:31.155Z,62.00
2017-04-07T05:30:31.007Z,61.80
2017-04-07T05:31:30.107Z,61.50
2017-04-07T05:32:29.199Z,61.10
2017-04-07T05:33:28.292Z,61.00
2017-04-07T05:34:27.419Z,61.10
2017-04-07T05:35:27.421Z,60.90
2017-04-07T05:36:27.255Z,60.20
2017-04-07T05:37:55.187Z,59.80
2017-04-07T05:39:04.205Z,59.80
2017-04-07T05:40:10.460Z,59.90
2017-04-07T05:41:23.111Z,60.00
2017-04-07T05:42:32.803Z,60.10
2017-04-07T05:43:36.594Z,60.50
2017-04-07T05:44:36.428Z,60.40
2017-04-07T05:45:35.547Z,60.00
2017-04-07T05:46:34.644Z,60.10
2017-04-07T05:47:33.819Z,60.20
2017-04-07T05:48:32.932Z,60.20
2017-04-07T05:50:32.194Z,60.40
2017-04-07T05:51:31.300Z,60.40
2017-04-07T05:52:30.407Z,60.20
2017-04-07T05:53:30.315Z,60.20
2017-04-07T05:54:30.177Z,60.00
2017-04-07T05:55:29.315Z,59.90
2017-04-07T05:56:28.449Z,60.00
2017-04-07T05:57:27.637Z,60.50
2017-04-07T05:58:26.735Z,60.90
2017-04-07T05:59:25.841Z,61.00
2017-04-07T06:00:25.702Z,60.90
2017-04-07T06:01:24.820Z,60.50
2017-04-07T06:02:24.667Z,60.50
2017-04-07T06:03:23.769Z,60.40
2017-04-07T06:04:22.865Z,60.30
2017-04-07T06:05:21.996Z,59.90
2017-04-07T06:06:21.852Z,59.70
2017-04-07T06:07:20.944Z,59.90
2017-04-07T06:08:20.041Z,60.10
2017-04-07T06:11:17.997Z,60.50
2017-04-07T06:12:17.119Z,59.60
2017-04-07T06:13:16.985Z,59.70
2017-04-07T06:14:16.085Z,59.70
2017-04-07T06:15:15.731Z,59.40
2017-04-07T06:16:14.875Z,59.10
2017-04-07T06:17:13.976Z,59.00
2017-04-07T06:18:13.816Z,59.40
2017-04-07T06:19:12.951Z,59.10
2017-04-07T06:20:12.064Z,58.90
2017-04-07T06:21:11.988Z,58.70
2017-04-07T06:22:11.088Z,58.70
2017-04-07T06:23:10.181Z,58.60
2017-04-07T06:24:09.276Z,58.80
2017-04-07T06:25:08.372Z,59.00
2017-04-07T06:26:07.506Z,58.80
2017-04-07T06:27:07.354Z,59.10
2017-04-07T06:28:06.459Z,59.30
2017-04-07T06:29:05.556Z,59.40
2017-04-07T06:30:05.391Z,59.90
2017-04-07T06:31:04.504Z,59.30
2017-04-07T06:32:03.616Z,59.20
2017-04-07T06:33:02.717Z,59.30
2017-04-07T06:34:02.564Z,59.10
2017-04-07T06:35:01.660Z,58.70
2017-04-07T06:36:01.039Z,58.40
2017-04-07T06:37:00.138Z,58.40
2017-04-07T06:37:59.339Z,58.70
2017-04-07T06:38:58.443Z,58.70
2017-04-07T06:39:57.552Z,58.70
2017-04-07T06:40:57.398Z,58.80
2017-04-07T06:41:56.512Z,58.40
2017-04-07T06:42:55.612Z,58.40
2017-04-07T06:43:55.447Z,58.70
2017-04-07T06:44:54.552Z,58.30
2017-04-07T06:45:53.652Z,58.40
2017-04-07T06:46:52.788Z,58.50
2017-04-07T06:48:51.376Z,58.40
2017-04-07T06:49:50.504Z,58.30
2017-04-07T06:50:49.640Z,58.30
2017-04-07T06:51:49.380Z,58.40
2017-04-07T06:52:48.497Z,58.50
2017-04-07T06:53:47.631Z,58.80
2017-04-07T06:54:46.855Z,58.70
2017-04-07T06:55:46.712Z,58.60
2017-04-07T06:56:45.871Z,59.10
2017-04-07T06:58:44.445Z,58.60
2017-04-07T06:59:43.555Z,58.80
2017-04-07T07:00:43.408Z,59.10
2017-04-07T07:01:42.779Z,59.00
2017-04-07T07:02:49.087Z,58.90
2017-04-07T07:03:48.976Z,58.50
2017-04-07T07:04:48.389Z,59.00
2017-04-07T07:05:48.520Z,59.10
2017-04-07T07:06:47.655Z,59.40
2017-04-07T07:07:46.775Z,58.90
2017-04-07T07:08:46.640Z,58.80
2017-04-07T07:09:45.747Z,58.40
2017-04-07T07:11:44.271Z,58.70
2017-04-07T07:12:43.411Z,59.30
2017-04-07T07:13:42.515Z,58.90
2017-04-07T07:14:42.360Z,58.80
2017-04-07T07:15:41.507Z,58.10
2017-04-07T07:16:41.367Z,57.70
2017-04-07T07:17:40.492Z,57.70
2017-04-07T07:18:40.344Z,57.90
2017-04-07T07:19:39.459Z,57.90
2017-04-07T07:20:38.568Z,57.90
2017-04-07T07:21:38.416Z,58.10
2017-04-07T07:22:37.551Z,58.10
2017-04-07T07:23:37.407Z,58.00
2017-04-07T07:24:36.519Z,57.70
2017-04-07T07:25:35.647Z,57.40
2017-04-07T07:26:34.791Z,57.50
2017-04-07T07:27:33.908Z,57.50
2017-04-07T07:28:33.780Z,57.70
2017-04-07T07:29:32.887Z,57.60
2017-04-07T07:30:32.728Z,57.60
2017-04-07T07:31:31.844Z,57.10
2017-04-07T07:32:31.060Z,57.20
2017-04-07T07:33:30.948Z,57.20
2017-04-07T07:34:30.044Z,57.20
2017-04-07T07:35:29.879Z,57.20
2017-04-07T07:36:29.625Z,57.30
2017-04-07T07:37:28.809Z,57.00
2017-04-07T07:38:27.900Z,56.80
2017-04-07T07:39:27.027Z,56.70
2017-04-07T07:40:26.864Z,56.80
2017-04-07T07:41:25.967Z,56.90
2017-04-07T07:42:25.067Z,56.70
2017-04-07T07:43:24.180Z,56.50
2017-04-07T07:44:24.042Z,56.60
2017-04-07T07:45:23.139Z,56.60
2017-04-07T07:46:22.232Z,56.50
2017-04-07T07:47:21.348Z,56.60
2017-04-07T07:48:20.448Z,56.50
2017-04-07T07:49:19.808Z,56.70
2017-04-07T07:50:19.644Z,56.70
2017-04-07T07:51:18.743Z,56.80
2017-04-07T07:52:17.848Z,56.90
2017-04-07T07:53:16.943Z,56.70
2017-04-07T07:54:16.040Z,56.30
2017-04-07T07:55:15.168Z,56.30
2017-04-07T07:56:14.290Z,56.30
2017-04-07T07:57:13.388Z,56.40
2017-04-07T07:58:12.480Z,56.10
2017-04-07T07:59:11.580Z,55.90
2017-04-07T08:00:11.517Z,56.30
2017-04-07T08:01:10.623Z,56.00
2017-04-07T08:02:09.728Z,55.80
2017-04-07T08:03:08.811Z,55.60
2017-04-07T08:04:07.907Z,55.60
2017-04-07T08:05:07.362Z,55.80
2017-04-07T08:06:06.451Z,55.40
2017-04-07T08:07:05.536Z,55.10
2017-04-07T08:08:04.627Z,54.80
2017-04-07T08:09:04.996Z,54.90
2017-04-07T08:10:04.836Z,55.10
2017-04-07T08:11:03.981Z,55.40
2017-04-07T08:12:03.827Z,55.80
2017-04-07T08:13:02.920Z,54.30
2017-04-07T08:14:02.056Z,54.40
2017-04-07T08:15:01.895Z,54.50
2017-04-07T08:16:01.009Z,54.70
2017-04-07T08:17:00.104Z,54.20
2017-04-07T08:17:59.196Z,53.80
2017-04-07T08:18:58.296Z,53.90
2017-04-07T08:19:58.135Z,53.80
2017-04-07T08:20:57.252Z,52.80
2017-04-07T08:21:56.348Z,52.70
2017-04-07T08:22:55.459Z,52.60
2017-04-07T08:23:55.304Z,52.80
2017-04-07T08:24:54.391Z,52.80
2017-04-07T08:25:53.772Z,52.90
2017-04-07T08:26:52.864Z,52.80
2017-04-07T08:27:51.960Z,53.10
2017-04-07T08:28:51.058Z,52.80
2017-04-07T08:29:50.161Z,51.90
2017-04-07T08:30:49.252Z,52.50
2017-04-07T08:31:48.372Z,52.00
2017-04-07T08:32:47.471Z,51.80
2017-04-07T08:33:46.572Z,51.70
2017-04-07T08:34:45.676Z,51.80
2017-04-07T08:35:44.772Z,51.70
2017-04-07T08:36:43.876Z,52.50
2017-04-07T08:37:43.723Z,52.50
2017-04-07T08:38:42.820Z,52.20
2017-04-07T08:39:41.963Z,52.20
2017-04-07T08:40:41.816Z,52.30
2017-04-07T08:41:40.964Z,52.10
2017-04-07T08:42:40.071Z,52.00
2017-04-07T08:43:39.159Z,52.30
2017-04-07T08:44:38.408Z,52.50
2017-04-07T08:45:38.304Z,52.00
2017-04-07T08:46:38.148Z,51.30
2017-04-07T08:47:37.303Z,50.70
2017-04-07T08:48:37.157Z,51.00
2017-04-07T08:49:36.280Z,50.50
2017-04-07T08:50:36.147Z,51.20
2017-04-07T08:51:35.280Z,50.30
2017-04-07T08:52:35.715Z,51.60
2017-04-07T08:53:34.838Z,51.50
2017-04-07T08:54:34.738Z,51.00
2017-04-07T08:55:33.916Z,51.00
2017-04-07T08:56:33.028Z,51.20
2017-04-07T08:57:32.159Z,51.50
2017-04-07T08:58:31.391Z,51.10
2017-04-07T08:59:30.509Z,51.30
2017-04-07T09:00:30.436Z,51.70
2017-04-07T09:01:29.552Z,52.20
2017-04-07T09:02:28.908Z,50.70
2017-04-07T09:03:28.019Z,50.90
2017-04-07T09:04:27.129Z,50.30
2017-04-07T09:05:27.119Z,50.30
2017-04-07T09:06:26.324Z,49.60
2017-04-07T09:07:25.455Z,50.60
2017-04-07T09:08:25.312Z,50.00
2017-04-07T09:09:24.419Z,49.70
2017-04-07T09:11:23.702Z,50.00
2017-04-07T09:12:22.816Z,50.30
2017-04-07T09:13:22.692Z,50.20
2017-04-07T09:14:21.807Z,50.30
2017-04-07T09:15:21.717Z,49.70
2017-04-07T09:16:21.631Z,48.80
2017-04-07T09:17:20.747Z,48.80
2017-04-07T09:18:20.019Z,48.50
2017-04-07T09:19:19.138Z,49.10
2017-04-07T09:20:18.256Z,49.20
2017-04-07T09:21:18.108Z,49.80
2017-04-07T09:22:17.252Z,48.40
2017-04-07T09:23:17.132Z,48.20
2017-04-07T09:24:16.252Z,48.60
2017-04-07T09:25:16.106Z,48.30
2017-04-07T09:26:15.215Z,48.60
2017-04-07T09:28:14.500Z,47.90
2017-04-07T09:30:13.100Z,47.60
2017-04-07T09:31:12.966Z,47.30
2017-04-07T09:32:12.085Z,47.00
2017-04-07T09:33:11.956Z,46.90
2017-04-07T09:34:11.083Z,47.10
2017-04-07T09:35:10.989Z,47.00
2017-04-07T09:36:10.854Z,46.90
2017-04-07T09:37:09.974Z,46.80
2017-04-07T09:38:09.900Z,47.50
2017-04-07T09:39:09.063Z,47.40
2017-04-07T09:40:08.978Z,46.70
2017-04-07T09:41:08.840Z,46.60
2017-04-07T09:42:07.980Z,45.40
2017-04-07T09:43:07.123Z,45.30
2017-04-07T09:44:06.242Z,45.00
2017-04-07T09:45:06.104Z,45.10
2017-04-07T09:46:05.231Z,45.20
2017-04-07T09:47:05.193Z,45.10
2017-04-07T09:48:04.381Z,44.80
2017-04-07T09:49:03.488Z,43.70
2017-04-07T09:50:02.595Z,43.90
2017-04-07T09:51:02.436Z,43.30
2017-04-07T09:52:01.540Z,42.90
2017-04-07T09:53:00.668Z,42.50
2017-04-07T09:54:00.508Z,41.40
2017-04-07T09:54:59.608Z,40.70
2017-04-07T09:55:58.716Z,40.00
2017-04-07T09:56:57.818Z,39.40
2017-04-07T09:57:57.659Z,40.30
2017-04-07T09:58:56.780Z,39.70
2017-04-07T09:59:55.885Z,38.40
2017-04-07T10:00:55.724Z,37.20
2017-04-07T10:01:54.832Z,36.70
2017-04-07T10:02:53.931Z,36.90
2017-04-07T10:03:53.057Z,36.70
2017-04-07T10:04:52.996Z,35.90
2017-04-07T10:05:52.092Z,36.10
2017-04-07T10:06:51.199Z,35.70
2017-04-07T10:07:50.295Z,35.20
2017-04-07T10:08:49.423Z,35.10
2017-04-07T10:09:48.654Z,35.20
2017-04-07T10:10:47.752Z,36.30
2017-04-07T10:11:46.858Z,36.50
2017-04-07T10:12:46.832Z,36.40
2017-04-07T10:13:45.939Z,36.50
2017-04-07T10:14:45.814Z,37.50
2017-04-07T10:15:44.912Z,36.90
2017-04-07T10:16:44.013Z,37.50
2017-04-07T10:18:43.251Z,37.20
2017-04-07T10:19:42.360Z,38.10
2017-04-07T10:20:41.483Z,38.60
2017-04-07T10:21:41.328Z,37.70
2017-04-07T10:22:40.480Z,38.00
2017-04-07T10:23:40.335Z,38.20
2017-04-07T10:24:39.440Z,38.60
2017-04-07T10:25:38.575Z,39.20
2017-04-07T10:26:37.684Z,40.30
2017-04-07T10:27:36.795Z,40.50
2017-04-07T10:28:36.430Z,40.50
2017-04-07T10:29:36.272Z,40.40
2017-04-07T10:30:35.392Z,41.00
2017-04-07T10:31:34.496Z,41.80
2017-04-07T10:32:34.344Z,41.90
2017-04-07T10:33:33.487Z,42.00
2017-04-07T10:34:33.376Z,42.10
2017-04-07T10:35:32.507Z,42.50
2017-04-07T10:36:31.604Z,42.40
2017-04-07T10:37:30.735Z,42.70
2017-04-07T10:38:29.939Z,43.30
2017-04-07T10:39:29.784Z,43.50
2017-04-07T10:40:28.992Z,43.60
2017-04-07T10:41:28.112Z,44.80
2017-04-07T10:42:27.960Z,43.60
2017-04-07T10:43:27.062Z,42.90
2017-04-07T10:44:26.160Z,43.40
2017-04-07T10:45:25.276Z,43.80
2017-04-07T10:46:25.139Z,44.20
2017-04-07T10:47:24.262Z,43.90
2017-04-07T10:48:24.111Z,44.20
2017-04-07T10:49:23.209Z,44.10
2017-04-07T10:50:22.312Z,44.10
2017-04-07T10:51:21.436Z,44.40
2017-04-07T10:52:20.539Z,44.60
2017-04-07T10:53:19.645Z,45.10
2017-04-07T10:54:18.748Z,45.10
2017-04-07T10:55:18.856Z,44.90
2017-04-07T10:56:17.981Z,44.20
2017-04-07T10:57:17.832Z,44.30
2017-04-07T10:58:16.939Z,44.00
2017-04-07T10:59:16.043Z,43.70
2017-04-07T11:00:15.972Z,43.30
2017-04-07T11:01:15.096Z,43.90
2017-04-07T11:02:14.199Z,42.30
2017-04-07T11:03:13.304Z,42.00
2017-04-07T11:04:13.160Z,41.80
2017-04-07T11:05:12.276Z,41.70
2017-04-07T11:06:11.396Z,41.20
2017-04-07T11:07:10.515Z,41.50
2017-04-07T11:08:09.722Z,41.70
2017-04-07T11:09:08.819Z,42.10
2017-04-07T11:10:07.924Z,41.70
2017-04-07T11:11:07.775Z,41.70
2017-04-07T11:12:06.896Z,41.80
2017-04-07T11:13:06.001Z,42.60
2017-04-07T11:14:05.848Z,43.50
2017-04-07T11:15:04.959Z,44.80
2017-04-07T11:16:04.051Z,43.90
2017-04-07T11:17:03.183Z,44.10
2017-04-07T11:18:02.287Z,44.30
2017-04-07T11:19:01.508Z,43.20
2017-04-07T11:20:00.604Z,43.70
2017-04-07T11:20:59.718Z,43.90
2017-04-07T11:21:59.572Z,42.50
2017-04-07T11:22:58.680Z,43.10
2017-04-07T11:24:57.928Z,42.30
2017-04-07T11:25:57.024Z,43.10
2017-04-07T11:26:56.160Z,43.10
2017-04-07T11:27:55.996Z,43.40
2017-04-07T11:28:55.100Z,44.40
2017-04-07T11:29:54.200Z,43.10
2017-04-07T11:30:53.303Z,42.80
2017-04-07T11:31:52.509Z,43.40
2017-04-07T11:32:52.370Z,44.00
2017-04-07T11:33:51.508Z,42.80
2017-04-07T11:34:51.355Z,43.20
2017-04-07T11:35:50.452Z,43.00
2017-04-07T11:36:49.638Z,44.30
2017-04-07T11:37:48.760Z,43.00
2017-04-07T11:38:48.604Z,43.40
2017-04-07T11:39:47.728Z,44.10
2017-04-07T11:40:46.828Z,44.50
2017-04-07T11:41:46.701Z,44.40
2017-04-07T11:42:45.802Z,44.50
2017-04-07T11:43:44.928Z,44.20
2017-04-07T11:44:44.031Z,43.90
2017-04-07T11:45:43.131Z,43.20
2017-04-07T11:46:42.263Z,43.00
2017-04-07T11:47:42.136Z,43.40
2017-04-07T11:48:41.272Z,43.30
2017-04-07T11:49:40.387Z,43.30
2017-04-07T11:50:39.504Z,43.20
2017-04-07T11:53:37.469Z,42.90
2017-04-07T11:54:36.592Z,43.30
2017-04-07T11:55:36.554Z,43.00
2017-04-07T11:56:35.687Z,42.50
2017-04-07T11:57:35.547Z,42.20
2017-04-07T11:58:34.680Z,41.90
2017-04-07T11:59:33.796Z,41.30
2017-04-07T12:00:32.991Z,41.10
2017-04-07T12:01:32.132Z,41.60
2017-04-07T12:02:32.441Z,41.80
2017-04-07T12:03:32.340Z,42.20
2017-04-07T12:04:32.196Z,41.80
2017-04-07T12:05:31.307Z,41.50
2017-04-07T12:06:30.424Z,42.40
2017-04-07T12:07:30.281Z,42.10
2017-04-07T12:08:29.400Z,42.20
2017-04-07T12:09:29.290Z,42.00
2017-04-07T12:10:28.404Z,42.30
2017-04-07T12:11:28.263Z,43.20
2017-04-07T12:12:27.380Z,41.90
2017-04-07T12:13:27.245Z,41.80
2017-04-07T12:14:26.388Z,42.00
2017-04-07T12:15:25.503Z,42.40
2017-04-07T12:16:24.608Z,43.00
2017-04-07T12:17:23.725Z,42.90
2017-04-07T12:18:23.583Z,44.50
2017-04-07T12:19:22.717Z,43.90
2017-04-07T12:20:22.585Z,43.10
2017-04-07T12:21:21.716Z,43.10
2017-04-07T12:22:21.576Z,42.90
2017-04-07T12:23:20.696Z,42.70
2017-04-07T12:24:20.580Z,43.10
2017-04-07T12:25:19.696Z,43.00
2017-04-07T12:26:19.568Z,43.40
2017-04-07T12:27:18.686Z,44.80
2017-04-07T12:28:18.550Z,44.20
2017-04-07T12:29:17.684Z,44.80
2017-04-07T12:30:16.800Z,44.10
2017-04-07T12:31:15.917Z,43.90
2017-04-07T12:33:15.180Z,43.60
2017-04-07T12:34:14.569Z,43.60
2017-04-07T12:35:13.692Z,43.50
2017-04-07T12:36:12.803Z,44.20
2017-04-07T12:37:12.761Z,44.10
2017-04-07T12:38:11.872Z,45.00
2017-04-07T12:40:10.436Z,43.50
2017-04-07T12:41:09.556Z,43.30
2017-04-07T12:42:09.460Z,44.00
2017-04-07T12:43:09.340Z,44.40
2017-04-07T12:44:08.549Z,43.90
2017-04-07T12:45:08.424Z,43.60
2017-04-07T12:46:07.640Z,43.70
2017-04-07T12:47:07.532Z,44.10
2017-04-07T12:49:06.333Z,44.50
2017-04-07T12:50:06.197Z,43.90
2017-04-07T12:51:05.296Z,44.60
2017-04-07T12:52:04.413Z,44.30
2017-04-07T12:53:04.255Z,44.90
2017-04-07T12:54:03.369Z,44.40
2017-04-07T12:55:02.500Z,42.90
2017-04-07T12:56:01.660Z,42.90
2017-04-07T12:57:01.512Z,43.70
2017-04-07T12:58:00.647Z,43.50
2017-04-07T12:59:00.500Z,43.40
2017-04-07T12:59:59.644Z,43.00
2017-04-07T13:00:59.560Z,43.40
2017-04-07T13:01:59.519Z,42.90
2017-04-07T13:02:58.636Z,43.30
2017-04-07T13:03:58.497Z,43.50
2017-04-07T13:04:57.612Z,43.10
2017-04-07T13:05:56.753Z,43.10
2017-04-07T13:06:55.867Z,42.90
2017-04-07T13:07:55.017Z,42.90
2017-04-07T13:08:54.160Z,43.00